Time;durP1;ratioP1;P1;durP2;ratioP2;P2;SDS_P1;SDS_P2;PMS_P1;PMS_P2;Temp;Humidity;BMP_temperature;BMP_pressure;BME280_temperature;BME280_humidity;BME280_pressure;Samples;Min_cycle;Max_cycle;Signal;HPM_P1;HPM_P2
2024/01/10 00:02:17;;;;;;;0.93;0.93;;;-4.80;99.90;;;-5.53;99.63;102310.75;5229648;28;20052;-46
2024/01/10 00:04:50;;;;;;;1.98;1.85;;;-4.80;99.90;;;-5.53;99.86;102298.06;5221323;28;20135;-44
2024/01/10 00:07:22;;;;;;;4.00;3.60;;;-4.80;99.90;;;-5.53;99.53;102310.75;5227342;28;20056;-46
2024/01/10 00:09:55;;;;;;;2.50;2.05;;;-4.90;99.90;;;-5.55;99.76;102302.94;5223607;28;20037;-45
2024/01/10 00:12:33;;;;;;;2.28;1.45;;;-4.80;99.90;;;-5.57;99.58;102308.56;5236372;28;20048;-44
2024/01/10 00:15:08;;;;;;;2.60;2.15;;;-4.80;99.90;;;-5.58;99.88;102301.66;5233335;28;20052;-44
2024/01/10 00:17:42;;;;;;;7.93;2.25;;;-4.80;99.90;;;-5.60;99.45;102300.56;5230701;28;20053;-45
2024/01/10 00:20:14;;;;;;;5.28;1.88;;;-4.90;99.90;;;-5.63;100.00;102297.66;5241324;28;20510;-45
2024/01/10 00:22:47;;;;;;;2.72;2.45;;;-4.90;99.90;;;-5.64;100.00;102299.28;5235927;28;20041;-45
2024/01/10 00:25:19;;;;;;;2.70;1.55;;;-4.90;99.90;;;-5.64;100.00;102288.22;5245579;28;20645;-45
2024/01/10 00:27:51;;;;;;;1.30;1.20;;;-5.00;99.90;;;-5.63;100.00;102292.56;5225715;28;20045;-44
2024/01/10 00:30:26;;;;;;;6.38;2.03;;;-4.90;99.90;;;-5.64;100.00;102295.81;5238706;28;20083;-44
2024/01/10 00:32:58;;;;;;;2.80;2.03;;;-4.90;99.90;;;-5.64;100.00;102290.75;5237761;28;20044;-46
2024/01/10 00:35:30;;;;;;;1.70;1.52;;;-4.90;99.90;;;-5.64;100.00;102280.59;5229533;28;20041;-44
2024/01/10 00:38:02;;;;;;;2.92;2.15;;;-4.90;99.90;;;-5.65;100.00;102291.47;5224112;28;20049;-43
2024/01/10 00:40:38;;;;;;;2.22;1.42;;;-4.90;99.90;;;-5.67;100.00;102283.69;5233607;28;20051;-44
2024/01/10 00:43:10;;;;;;;2.58;1.88;;;-4.90;99.90;;;-5.68;100.00;102281.81;5232216;28;20508;-44
2024/01/10 00:45:44;;;;;;;2.20;1.95;;;-4.90;99.90;;;-5.70;100.00;102282.38;5232884;28;20419;-45
2024/01/10 00:48:17;;;;;;;7.38;2.40;;;-5.00;99.90;;;-5.72;100.00;102278.75;5239500;28;20388;-43
2024/01/10 00:50:49;;;;;;;3.85;1.77;;;-5.00;99.90;;;-5.74;100.00;102271.84;5227786;28;20052;-45
2024/01/10 00:53:22;;;;;;;2.38;2.17;;;-5.00;99.90;;;-5.75;100.00;102272.53;5243487;28;20052;-44
2024/01/10 00:55:54;;;;;;;3.88;1.25;;;-5.00;99.90;;;-5.76;100.00;102270.72;5230265;28;20068;-44
2024/01/10 00:58:26;;;;;;;1.33;1.10;;;-5.00;99.90;;;-5.75;100.00;102272.53;5230522;28;20454;-44
2024/01/10 01:01:00;;;;;;;3.65;2.08;;;-5.00;99.90;;;-5.74;100.00;102276.94;5238946;28;20051;-44
2024/01/10 01:03:32;;;;;;;1.42;1.40;;;-5.00;99.90;;;-5.74;100.00;102265.84;5246358;28;20510;-44
2024/01/10 01:06:05;;;;;;;1.20;0.85;;;-5.00;99.90;;;-5.72;100.00;102271.13;5248035;28;20055;-45
2024/01/10 01:08:38;;;;;;;1.13;1.02;;;-5.00;99.90;;;-5.70;100.00;102264.59;5238439;28;20118;-46
2024/01/10 01:11:11;;;;;;;1.25;1.15;;;-5.00;99.90;;;-5.69;100.00;102264.78;5243675;28;20052;-46
2024/01/10 01:13:44;;;;;;;6.60;1.55;;;-5.00;99.90;;;-5.69;100.00;102263.88;5229367;28;20147;-45
2024/01/10 01:16:18;;;;;;;1.48;1.17;;;-5.00;99.90;;;-5.72;100.00;102263.50;5237759;28;20060;-44
2024/01/10 01:18:53;;;;;;;3.53;1.33;;;-5.00;99.90;;;-5.75;100.00;102264.94;5236214;28;20045;-43
2024/01/10 01:21:26;;;;;;;2.28;1.95;;;-5.00;99.90;;;-5.77;100.00;102270.56;5238841;28;20048;-44
2024/01/10 01:23:58;;;;;;;2.05;1.20;;;-5.00;99.90;;;-5.81;100.00;102274.34;5229814;28;20067;-45
2024/01/10 01:26:30;;;;;;;0.93;0.93;;;-5.00;99.90;;;-5.82;100.00;102276.69;5230142;28;20056;-44
2024/01/10 01:29:03;;;;;;;4.20;2.20;;;-5.10;99.90;;;-5.84;100.00;102266.34;5250391;28;20094;-44
2024/01/10 01:31:37;;;;;;;3.30;2.03;;;-5.10;99.90;;;-5.86;100.00;102272.88;5241503;28;20403;-44
2024/01/10 01:34:09;;;;;;;5.22;2.38;;;-5.10;99.90;;;-5.88;100.00;102276.84;5237795;28;20106;-45
2024/01/10 01:36:42;;;;;;;4.63;1.75;;;-5.10;99.90;;;-5.89;100.00;102274.13;5239200;28;20068;-46
2024/01/10 01:39:14;;;;;;;2.38;2.10;;;-5.10;99.90;;;-5.90;100.00;102275.75;5236312;28;20059;-45
2024/01/10 01:41:47;;;;;;;3.20;2.30;;;-5.20;99.90;;;-5.89;100.00;102269.03;5227483;28;20063;-43
2024/01/10 01:44:20;;;;;;;1.05;1.05;;;-5.20;99.90;;;-5.93;100.00;102277.97;5243479;28;20075;-44
2024/01/10 01:46:54;;;;;;;2.83;2.10;;;-5.20;99.90;;;-5.92;100.00;102269.63;5244209;28;20052;-45
2024/01/10 01:49:26;;;;;;;3.50;2.38;;;-5.20;99.90;;;-5.91;100.00;102266.34;5245351;28;20044;-45
2024/01/10 01:52:00;;;;;;;1.52;1.42;;;-5.20;99.90;;;-5.91;100.00;102271.44;5245050;28;20048;-43
2024/01/10 01:54:33;;;;;;;0.98;0.65;;;-5.20;99.90;;;-5.92;100.00;102263.63;5236230;28;20055;-45
2024/01/10 01:57:06;;;;;;;2.85;1.83;;;-5.20;99.90;;;-5.93;100.00;102256.72;5261681;28;20416;-45
2024/01/10 01:59:38;;;;;;;3.55;1.42;;;-5.20;99.90;;;-5.92;100.00;102261.09;5227203;28;20041;-44
2024/01/10 02:02:14;;;;;;;11.30;2.17;;;-5.20;99.90;;;-5.93;100.00;102259.25;5234990;28;20068;-45
2024/01/10 02:04:48;;;;;;;1.60;1.50;;;-5.20;99.90;;;-5.96;100.00;102262.34;5240742;28;20053;-45
2024/01/10 02:07:20;;;;;;;9.52;2.67;;;-5.20;99.90;;;-5.99;100.00;102256.91;5230190;28;20125;-46
2024/01/10 02:09:52;;;;;;;5.00;1.75;;;-5.20;99.90;;;-5.99;100.00;102249.28;5237525;28;20048;-44
2024/01/10 02:12:26;;;;;;;1.33;1.15;;;-5.20;99.90;;;-5.99;100.00;102254.34;5230711;28;20456;-43
2024/01/10 02:14:58;;;;;;;4.60;2.60;;;-5.30;99.90;;;-5.97;100.00;102241.84;5233322;28;20063;-44
2024/01/10 02:17:32;;;;;;;4.57;1.92;;;-5.20;99.90;;;-5.93;100.00;102242.41;5233790;28;20118;-44
2024/01/10 02:20:11;;;;;;;3.60;1.92;;;-5.20;99.90;;;-5.93;100.00;102239.88;5240943;28;20049;-43
2024/01/10 02:22:44;;;;;;;3.08;2.10;;;-5.20;99.90;;;-5.92;100.00;102239.16;5237777;28;20121;-44
2024/01/10 02:25:18;;;;;;;0.40;0.35;;;-5.20;99.90;;;-5.93;100.00;102236.41;5238227;28;20383;-44
2024/01/10 02:27:50;;;;;;;3.05;1.85;;;-5.20;99.90;;;-5.92;100.00;102229.00;5230449;28;20044;-44
2024/01/10 02:30:23;;;;;;;1.63;1.52;;;-5.20;99.90;;;-5.90;100.00;102241.84;5240467;28;20044;-44
2024/01/10 02:32:55;;;;;;;1.33;0.85;;;-5.20;99.90;;;-5.91;100.00;102235.88;5236052;28;20049;-44
2024/01/10 02:35:28;;;;;;;1.55;1.40;;;-5.20;99.90;;;-5.93;100.00;102236.41;5257745;28;20498;-44
2024/01/10 02:38:00;;;;;;;3.65;1.33;;;-5.20;99.90;;;-5.95;100.00;102236.22;5234404;28;20045;-44
2024/01/10 02:40:34;;;;;;;2.08;1.75;;;-5.20;99.90;;;-5.97;100.00;102237.66;5230251;28;20051;-43
2024/01/10 02:43:07;;;;;;;4.45;1.10;;;-5.20;99.90;;;-6.03;100.00;102242.00;5235153;28;20057;-45
2024/01/10 02:45:39;;;;;;;1.58;1.05;;;-5.30;99.90;;;-6.09;100.00;102237.06;5236578;28;20041;-45
2024/01/10 02:48:12;;;;;;;1.58;1.48;;;-5.30;99.90;;;-6.09;100.00;102248.84;5229121;28;20073;-43
2024/01/10 02:50:44;;;;;;;5.07;1.60;;;-5.30;99.90;;;-6.09;100.00;102243.78;5227828;28;20462;-45
2024/01/10 02:53:17;;;;;;;0.52;0.47;;;-5.40;99.90;;;-6.10;100.00;102249.56;5250375;28;20185;-45
2024/01/10 02:55:51;;;;;;;1.25;1.15;;;-5.40;99.90;;;-6.12;100.00;102249.41;5233489;28;20048;-45
2024/01/10 02:58:25;;;;;;;2.42;2.22;;;-5.40;99.90;;;-6.11;100.00;102242.69;5241688;28;20060;-43
2024/01/10 03:00:58;;;;;;;1.70;1.38;;;-5.40;99.90;;;-6.14;100.00;102239.75;5243994;28;20052;-44
2024/01/10 03:03:30;;;;;;;1.77;1.27;;;-5.40;99.90;;;-6.19;100.00;102236.66;5246925;28;20147;-45
2024/01/10 03:06:03;;;;;;;4.82;1.63;;;-5.40;99.90;;;-6.19;100.00;102235.75;5236119;28;20040;-46
2024/01/10 03:08:35;;;;;;;1.45;1.13;;;-5.40;99.90;;;-6.21;100.00;102234.63;5231232;28;20059;-44
2024/01/10 03:11:09;;;;;;;1.08;0.98;;;-5.50;99.90;;;-6.19;100.00;102238.31;5232915;28;20051;-45
2024/01/10 03:13:44;;;;;;;1.80;1.27;;;-5.50;99.90;;;-6.21;100.00;102235.53;5243921;28;20059;-44
2024/01/10 03:16:17;;;;;;;0.95;0.90;;;-5.50;99.90;;;-6.19;100.00;102234.13;5243711;28;20044;-45
2024/01/10 03:18:49;;;;;;;6.65;1.38;;;-5.40;99.90;;;-6.17;100.00;102229.22;5248140;28;20530;-44
2024/01/10 03:21:24;;;;;;;1.40;1.40;;;-5.40;99.90;;;-6.20;100.00;102224.66;5252075;28;20048;-45
2024/01/10 03:23:58;;;;;;;0.73;0.73;;;-5.50;99.90;;;-6.21;100.00;102233.00;5230385;28;20047;-45
2024/01/10 03:26:31;;;;;;;1.17;1.17;;;-5.50;99.90;;;-6.22;100.00;102227.75;5232237;28;20145;-43
2024/01/10 03:29:07;;;;;;;1.00;1.00;;;-5.40;99.90;;;-6.21;100.00;102235.53;5234979;28;20521;-44
2024/01/10 03:31:39;;;;;;;1.45;1.35;;;-5.40;99.90;;;-6.19;100.00;102230.69;5244832;28;20522;-43
2024/01/10 03:34:12;;;;;;;1.77;1.35;;;-5.40;99.90;;;-6.18;100.00;102232.50;5226393;28;20045;-44
2024/01/10 03:36:44;;;;;;;6.05;2.20;;;-5.50;99.90;;;-6.16;100.00;102225.97;5237809;28;20510;-45
2024/01/10 03:39:16;;;;;;;1.38;1.15;;;-5.40;99.90;;;-6.13;100.00;102226.34;5247335;28;20044;-44
2024/01/10 03:41:50;;;;;;;1.48;1.38;;;-5.40;99.90;;;-6.13;100.00;102229.81;5230391;28;20049;-44
2024/01/10 03:44:22;;;;;;;1.35;1.33;;;-5.40;99.90;;;-6.14;100.00;102233.03;5228972;28;20052;-46
2024/01/10 03:46:55;;;;;;;2.05;1.88;;;-5.40;99.90;;;-6.16;100.00;102234.50;5251339;28;20055;-43
2024/01/10 03:49:27;;;;;;;1.23;1.10;;;-5.40;99.90;;;-6.18;100.00;102229.97;5260024;28;20094;-44
2024/01/10 03:52:00;;;;;;;0.77;0.75;;;-5.40;99.90;;;-6.19;100.00;102239.19;5251548;28;20147;-44
2024/01/10 03:54:33;;;;;;;2.03;1.17;;;-5.40;99.90;;;-6.20;100.00;102228.84;5246464;28;20055;-44
2024/01/10 03:57:07;;;;;;;2.03;1.48;;;-5.40;99.90;;;-6.22;100.00;102226.13;5249587;28;20451;-44
2024/01/10 03:59:39;;;;;;;1.35;1.13;;;-5.40;99.90;;;-6.23;100.00;102231.00;5259916;28;20047;-44
2024/01/10 04:02:12;;;;;;;2.50;1.00;;;-5.50;99.90;;;-6.25;100.00;102224.84;5246917;28;20506;-45
2024/01/10 04:04:44;;;;;;;2.53;1.35;;;-5.50;99.90;;;-6.26;100.00;102225.53;5252843;28;20047;-43
2024/01/10 04:07:17;;;;;;;3.13;2.30;;;-5.50;99.90;;;-6.26;100.00;102223.91;5253156;28;20041;-47
2024/01/10 04:09:49;;;;;;;1.80;0.93;;;-5.50;99.90;;;-6.25;100.00;102219.78;5252226;28;20051;-45
2024/01/10 04:12:23;;;;;;;0.70;0.70;;;-5.50;99.90;;;-6.28;100.00;102215.22;5247171;28;20411;-43
2024/01/10 04:14:58;;;;;;;1.25;1.15;;;-5.50;99.90;;;-6.26;100.00;102217.91;5247193;28;20498;-44
2024/01/10 04:17:31;;;;;;;1.25;1.17;;;-5.50;99.90;;;-6.28;100.00;102216.13;5253441;28;20052;-45
2024/01/10 04:20:04;;;;;;;3.35;2.55;;;-5.50;99.90;;;-6.26;100.00;102225.53;5246886;28;20048;-46
2024/01/10 04:22:37;;;;;;;6.32;1.52;;;-5.50;99.90;;;-6.26;100.00;102213.75;5251842;28;20048;-43
2024/01/10 04:25:12;;;;;;;1.70;1.55;;;-5.50;99.90;;;-6.24;100.00;102221.59;5246738;28;20052;-43
2024/01/10 04:27:46;;;;;;;1.63;1.10;;;-5.50;99.90;;;-6.21;100.00;102221.94;5267043;28;20138;-44
2024/01/10 04:30:18;;;;;;;5.45;1.60;;;-5.50;99.90;;;-6.22;100.00;102217.59;5254254;28;20055;-44
2024/01/10 04:32:51;;;;;;;2.88;1.60;;;-5.50;99.90;;;-6.22;100.00;102215.06;5247005;28;20057;-43
2024/01/10 04:35:23;;;;;;;2.72;1.65;;;-5.40;99.90;;;-6.24;100.00;102222.50;5256867;28;20055;-44
2024/01/10 04:37:55;;;;;;;2.15;1.38;;;-5.50;99.90;;;-6.24;100.00;102212.34;5265294;28;20052;-46
2024/01/10 04:40:28;;;;;;;2.15;1.77;;;-5.50;99.90;;;-6.23;100.00;102216.69;5265835;28;20044;-44
2024/01/10 04:43:02;;;;;;;2.20;2.03;;;-5.40;99.90;;;-6.23;100.00;102213.25;5264212;28;20055;-45
2024/01/10 04:45:34;;;;;;;2.28;1.85;;;-5.40;99.90;;;-6.23;100.00;102210.72;5261899;28;20486;-44
2024/01/10 04:48:07;;;;;;;2.58;1.80;;;-5.50;99.90;;;-6.24;100.00;102212.34;5249071;28;20057;-44
2024/01/10 04:50:39;;;;;;;3.65;1.40;;;-5.50;99.90;;;-6.22;100.00;102205.81;5255461;28;20663;-44
2024/01/10 04:53:12;;;;;;;4.03;1.90;;;-5.40;99.90;;;-6.19;100.00;102210.38;5246321;28;20048;-44
2024/01/10 04:55:44;;;;;;;2.65;2.13;;;-5.40;99.90;;;-6.18;100.00;102215.63;5246684;28;20056;-46
2024/01/10 04:58:18;;;;;;;3.28;2.97;;;-5.40;99.90;;;-6.19;100.00;102216.34;5253301;28;20064;-47
2024/01/10 05:00:50;;;;;;;7.05;2.90;;;-5.40;99.90;;;-6.17;100.00;102216.53;5247535;28;20040;-45
2024/01/10 05:03:23;;;;;;;4.75;2.45;;;-5.40;99.90;;;-6.18;100.00;102212.19;5249378;28;20058;-45
2024/01/10 05:05:55;;;;;;;1.98;1.80;;;-5.40;99.90;;;-6.18;100.00;102213.09;5257688;28;20055;-46
2024/01/10 05:08:27;;;;;;;4.85;2.78;;;-5.40;99.90;;;-6.17;100.00;102216.53;5246479;28;20056;-46
2024/01/10 05:11:00;;;;;;;6.68;1.63;;;-5.40;99.90;;;-6.17;100.00;102212.38;5256850;28;20036;-45
2024/01/10 05:13:34;;;;;;;6.90;2.45;;;-5.40;99.90;;;-6.18;100.00;102212.19;5254441;28;20063;-45
2024/01/10 05:16:07;;;;;;;4.15;1.58;;;-5.40;99.90;;;-6.18;100.00;102212.19;5246224;28;20051;-46
2024/01/10 05:18:39;;;;;;;3.80;1.48;;;-5.40;99.90;;;-6.17;100.00;102216.53;5255126;28;20513;-44
2024/01/10 05:21:12;;;;;;;1.73;1.50;;;-5.40;99.90;;;-6.18;100.00;102202.94;5255604;28;20036;-45
2024/01/10 05:23:44;;;;;;;4.10;1.25;;;-5.40;99.90;;;-6.16;100.00;102206.56;5246135;28;20102;-45
2024/01/10 05:26:16;;;;;;;1.25;1.15;;;-5.40;99.90;;;-6.16;100.00;102209.09;5254519;28;20053;-47
2024/01/10 05:28:50;;;;;;;2.70;2.20;;;-5.40;99.90;;;-6.11;100.00;102209.69;5252588;28;20122;-44
2024/01/10 05:31:22;;;;;;;1.67;1.42;;;-5.40;99.90;;;-6.05;100.00;102212.97;5252528;28;20082;-44
2024/01/10 05:33:55;;;;;;;2.00;1.83;;;-5.30;99.90;;;-6.00;100.00;102209.34;5248790;28;20056;-45
2024/01/10 05:36:27;;;;;;;2.38;1.17;;;-5.30;99.90;;;-5.99;100.00;102217.91;5248745;28;20079;-44
2024/01/10 05:39:00;;;;;;;4.78;2.10;;;-5.20;99.90;;;-5.98;100.00;102207.91;5259574;28;20040;-44
2024/01/10 05:41:32;;;;;;;1.42;1.08;;;-5.30;99.90;;;-5.98;100.00;102207.91;5266365;28;20052;-44
2024/01/10 05:44:06;;;;;;;1.48;1.38;;;-5.30;99.90;;;-6.01;100.00;102203.34;5260186;28;20048;-45
2024/01/10 05:46:38;;;;;;;1.67;1.58;;;-5.20;99.90;;;-6.02;100.00;102208.25;5259237;28;21237;-44
2024/01/10 05:49:11;;;;;;;2.00;1.85;;;-5.30;99.90;;;-6.04;100.00;102208.06;5248973;28;20044;-45
2024/01/10 05:51:44;;;;;;;1.67;1.58;;;-5.30;99.90;;;-6.04;100.00;102212.25;5252087;28;20591;-44
2024/01/10 05:54:18;;;;;;;2.70;1.08;;;-5.30;99.90;;;-6.05;100.00;102203.72;5262588;28;20052;-45
2024/01/10 05:56:50;;;;;;;2.80;2.60;;;-5.30;99.90;;;-6.03;100.00;102198.81;5262494;28;20037;-45
2024/01/10 05:59:25;;;;;;;2.50;1.50;;;-5.30;99.90;;;-6.00;100.00;102201.72;5258114;28;20050;-45
2024/01/10 06:01:57;;;;;;;4.45;1.88;;;-5.30;99.90;;;-5.99;100.00;102201.03;5246979;28;20088;-44
2024/01/10 06:04:31;;;;;;;1.58;1.35;;;-5.30;99.90;;;-6.01;100.00;102194.84;5265969;28;20071;-43
2024/01/10 06:07:04;;;;;;;1.38;1.27;;;-5.30;99.90;;;-6.02;100.00;102185.41;5248259;28;20049;-44
2024/01/10 06:09:36;;;;;;;3.45;1.55;;;-5.30;99.90;;;-6.05;100.00;102180.88;5248460;28;20059;-45
2024/01/10 06:12:09;;;;;;;2.08;1.92;;;-5.30;99.90;;;-6.05;100.00;102180.88;5261245;28;20072;-44
2024/01/10 06:14:42;;;;;;;3.15;2.40;;;-5.30;99.90;;;-6.06;100.00;102179.06;5254697;28;20047;-45
2024/01/10 06:17:15;;;;;;;0.90;0.90;;;-5.30;99.90;;;-6.03;100.00;102178.50;5252415;28;20048;-44
2024/01/10 06:19:48;;;;;;;2.40;2.03;;;-5.30;99.90;;;-6.03;100.00;102175.97;5253302;28;20514;-44
2024/01/10 06:22:24;;;;;;;5.38;2.28;;;-5.30;99.90;;;-6.00;100.00;102173.78;5244693;28;20122;-45
2024/01/10 06:24:57;;;;;;;1.30;1.20;;;-5.30;99.90;;;-6.01;100.00;102177.06;5245438;28;20072;-45
2024/01/10 06:27:30;;;;;;;1.55;1.17;;;-5.30;99.90;;;-6.04;100.00;102171.63;5275640;28;20048;-45
2024/01/10 06:30:04;;;;;;;2.08;1.98;;;-5.30;99.90;;;-6.09;100.00;102172.69;5248368;28;20044;-45
2024/01/10 06:32:37;;;;;;;1.75;1.63;;;-5.30;99.90;;;-6.11;100.00;102174.13;5246738;28;20053;-44
2024/01/10 06:35:10;;;;;;;1.77;1.65;;;-5.40;99.90;;;-6.14;100.00;102178.81;5258881;28;20059;-45
2024/01/10 06:37:44;;;;;;;1.75;1.58;;;-5.30;99.90;;;-6.16;100.00;102180.28;5259969;28;20510;-43
2024/01/10 06:40:16;;;;;;;1.95;1.77;;;-5.40;99.90;;;-6.16;100.00;102182.81;5252947;28;20094;-45
2024/01/10 06:42:49;;;;;;;1.77;1.33;;;-5.40;99.90;;;-6.17;100.00;102181.00;5264867;28;20055;-44
2024/01/10 06:45:22;;;;;;;2.95;2.00;;;-5.40;99.90;;;-6.17;100.00;102174.28;5265251;28;20056;-46
2024/01/10 06:47:55;;;;;;;4.60;1.33;;;-5.40;99.90;;;-6.15;100.00;102177.00;5257960;28;20123;-43
2024/01/10 06:50:27;;;;;;;1.00;1.00;;;-5.40;99.90;;;-6.16;100.00;102185.34;5255427;28;20480;-44
2024/01/10 06:53:00;;;;;;;2.90;1.23;;;-5.40;99.90;;;-6.15;100.00;102179.53;5244405;28;20048;-44
2024/01/10 06:55:32;;;;;;;1.52;1.38;;;-5.40;99.90;;;-6.17;100.00;102181.00;5258206;28;20422;-44
2024/01/10 06:58:05;;;;;;;3.35;2.25;;;-5.40;99.90;;;-6.17;100.00;102174.28;5254053;28;20056;-46
2024/01/10 07:00:39;;;;;;;1.17;1.00;;;-5.40;99.90;;;-6.16;100.00;102185.34;5247914;28;20052;-44
2024/01/10 07:03:11;;;;;;;3.60;1.30;;;-5.40;99.90;;;-6.15;100.00;102184.63;5246494;28;20135;-44
2024/01/10 07:05:44;;;;;;;2.83;2.28;;;-5.40;99.90;;;-6.16;100.00;102191.34;5243985;28;20048;-44
2024/01/10 07:08:17;;;;;;;3.85;2.20;;;-5.40;99.90;;;-6.14;100.00;102183.91;5256034;28;20040;-44
2024/01/10 07:10:49;;;;;;;3.83;1.77;;;-5.40;99.90;;;-6.13;100.00;102190.78;5260292;28;20102;-44
2024/01/10 07:13:22;;;;;;;2.55;2.35;;;-5.40;99.90;;;-6.13;100.00;102190.78;5249052;28;20051;-44
2024/01/10 07:15:55;;;;;;;1.33;1.23;;;-5.40;99.90;;;-6.12;100.00;102197.72;5263326;28;20048;-44
2024/01/10 07:18:28;;;;;;;3.40;2.80;;;-5.40;99.90;;;-6.11;100.00;102194.44;5243631;28;20121;-43
2024/01/10 07:21:00;;;;;;;3.22;1.95;;;-5.40;99.90;;;-6.10;100.00;102203.88;5254192;28;20044;-45
2024/01/10 07:23:33;;;;;;;4.82;1.50;;;-5.40;99.90;;;-6.11;100.00;102202.06;5246001;28;20419;-45
2024/01/10 07:26:06;;;;;;;2.33;1.50;;;-5.40;99.90;;;-6.12;100.00;102212.94;5252312;28;20041;-44
2024/01/10 07:28:38;;;;;;;2.38;2.13;;;-5.40;99.90;;;-6.12;100.00;102213.84;5260037;28;20400;-43
2024/01/10 07:31:13;;;;;;;2.42;2.20;;;-5.40;99.90;;;-6.12;100.00;102229.09;5272932;28;20071;-44
2024/01/10 07:33:45;;;;;;;5.05;1.38;;;-5.40;99.90;;;-6.11;100.00;102227.44;5258978;28;20102;-45
2024/01/10 07:36:17;;;;;;;2.88;2.65;;;-5.30;99.90;;;-6.09;100.00;102223.47;5246381;28;20070;-43
2024/01/10 07:38:50;;;;;;;1.25;1.02;;;-5.40;99.90;;;-6.08;100.00;102217.66;5260747;28;20071;-44
2024/01/10 07:41:25;;;;;;;4.32;2.78;;;-5.40;99.90;;;-6.07;100.00;102229.63;5255304;28;20047;-43
2024/01/10 07:43:58;;;;;;;2.25;2.08;;;-5.30;99.90;;;-6.06;100.00;102221.31;5262644;28;20067;-44
2024/01/10 07:46:32;;;;;;;3.08;1.40;;;-5.30;99.90;;;-6.04;100.00;102222.41;5251517;28;20095;-45
2024/01/10 07:49:04;;;;;;;1.67;1.58;;;-5.30;99.90;;;-6.04;100.00;102215.69;5243217;28;20734;-45
2024/01/10 07:51:37;;;;;;;1.73;1.38;;;-5.30;99.90;;;-6.03;100.00;102221.69;5244567;28;20055;-45
2024/01/10 07:54:09;;;;;;;1.60;1.50;;;-5.30;99.90;;;-6.02;100.00;102226.03;5255908;28;20052;-44
2024/01/10 07:56:41;;;;;;;3.88;1.92;;;-5.30;99.90;;;-5.98;100.00;102227.34;5254145;28;20075;-44
2024/01/10 07:59:15;;;;;;;2.08;1.42;;;-5.30;99.90;;;-5.96;100.00;102230.97;5262350;28;20506;-46
2024/01/10 08:01:58;;;;;;;1.63;1.42;;;-5.30;99.90;;;-5.94;100.00;102232.94;5255666;28;20522;-44
2024/01/10 08:04:30;;;;;;;1.17;1.05;;;-5.20;99.90;;;-5.91;100.00;102227.34;5243128;28;20139;-44
2024/01/10 08:07:03;;;;;;;3.83;2.83;;;-5.20;99.90;;;-5.88;100.00;102231.13;5244390;28;20048;-45
2024/01/10 08:09:36;;;;;;;1.92;1.27;;;-5.20;99.90;;;-5.82;100.00;102224.25;5263079;28;20052;-44
2024/01/10 08:12:09;;;;;;;3.75;1.70;;;-5.10;99.90;;;-5.79;100.00;102229.72;5251472;28;20102;-46
2024/01/10 08:14:41;;;;;;;4.32;2.22;;;-5.10;99.90;;;-5.77;100.00;102235.00;5264005;28;20067;-45
2024/01/10 08:17:15;;;;;;;2.13;2.03;;;-5.10;99.90;;;-5.75;100.00;102229.34;5257702;28;20059;-46
2024/01/10 08:19:47;;;;;;;5.85;2.03;;;-5.00;99.90;;;-5.71;100.00;102224.66;5242910;28;20052;-44
2024/01/10 08:22:22;;;;;;;5.50;3.13;;;-5.00;99.90;;;-5.65;100.00;102222.88;5242860;28;20460;-44
2024/01/10 08:24:55;;;;;;;5.10;2.63;;;-5.00;99.90;;;-5.59;100.00;102227.06;5247052;28;20051;-43
2024/01/10 08:27:28;;;;;;;3.22;2.30;;;-4.90;99.90;;;-5.54;100.00;102235.25;5259867;28;20055;-44
2024/01/10 08:30:00;;;;;;;6.97;2.45;;;-4.90;99.90;;;-5.47;100.00;102237.81;5259555;28;20044;-44
2024/01/10 08:32:35;;;;;;;3.30;2.35;;;-4.80;99.90;;;-5.43;100.00;102239.97;5243221;28;20053;-45
2024/01/10 08:35:09;;;;;;;7.18;2.53;;;-4.70;99.90;;;-5.37;100.00;102230.56;5247309;28;20082;-44
2024/01/10 08:37:42;;;;;;;3.33;2.33;;;-4.70;99.90;;;-5.31;100.00;102227.84;5260011;28;20094;-44
2024/01/10 08:40:16;;;;;;;3.47;2.72;;;-4.60;99.90;;;-5.27;100.00;102228.41;5247672;28;20132;-45
2024/01/10 08:42:48;;;;;;;8.68;2.42;;;-4.60;99.90;;;-5.18;100.00;102229.50;5249985;28;20052;-44
2024/01/10 08:45:21;;;;;;;3.42;2.00;;;-4.50;99.90;;;-5.06;100.00;102236.78;5255193;28;20437;-44
2024/01/10 08:47:55;;;;;;;5.35;2.08;;;-4.40;99.90;;;-5.01;100.00;102239.16;5249886;28;20047;-44
2024/01/10 08:50:27;;;;;;;13.32;2.03;;;-4.40;99.90;;;-4.87;100.00;102248.41;5242688;28;20084;-44
2024/01/10 08:53:00;;;;;;;6.40;2.35;;;-4.30;99.90;;;-4.80;100.00;102250.06;5255096;28;20097;-44
2024/01/10 08:55:33;;;;;;;7.18;2.58;;;-4.20;99.90;;;-4.76;100.00;102253.16;5263864;28;20047;-43
2024/01/10 08:58:06;;;;;;;3.72;2.40;;;-4.10;99.90;;;-4.72;100.00;102254.41;5245537;28;20094;-44
2024/01/10 09:00:39;;;;;;;2.10;1.77;;;-4.10;99.90;;;-4.47;100.00;102253.13;5261697;28;20044;-44
2024/01/10 09:03:13;;;;;;;5.60;2.28;;;-3.90;99.90;;;-4.47;100.00;102248.94;5252969;28;20048;-44
2024/01/10 09:05:45;;;;;;;1.58;1.40;;;-3.80;99.90;;;-4.48;100.00;102261.47;5256161;28;20503;-44
2024/01/10 09:08:18;;;;;;;6.00;2.42;;;-3.90;99.90;;;-4.48;100.00;102256.41;5254947;28;20505;-45
2024/01/10 09:10:50;;;;;;;4.78;2.40;;;-3.80;99.90;;;-4.49;100.00;102257.13;5252081;28;20064;-44
2024/01/10 09:13:23;;;;;;;3.38;1.95;;;-3.80;99.90;;;-4.48;100.00;102256.41;5250031;28;20056;-44
2024/01/10 09:15:55;;;;;;;3.83;2.88;;;-3.90;99.90;;;-4.48;100.00;102261.47;5251543;28;20040;-45
2024/01/10 09:18:29;;;;;;;3.40;2.55;;;-3.80;99.90;;;-4.46;100.00;102254.94;5246287;28;20052;-43
2024/01/10 09:21:01;;;;;;;6.82;2.83;;;-3.80;99.90;;;-4.42;100.00;102262.22;5259833;28;20043;-45
2024/01/10 09:23:34;;;;;;;4.43;2.70;;;-3.80;99.90;;;-4.38;100.00;102251.63;5257599;28;20044;-44
2024/01/10 09:26:06;;;;;;;2.25;1.70;;;-3.80;99.90;;;-4.33;100.00;102260.72;5245835;28;20422;-44
2024/01/10 09:28:40;;;;;;;4.38;1.48;;;-3.80;99.90;;;-4.26;100.00;102260.72;5255006;28;20520;-44
2024/01/10 09:31:12;;;;;;;2.17;2.00;;;-3.70;99.90;;;-4.18;100.00;102259.03;5264610;28;20050;-44
2024/01/10 09:33:46;;;;;;;3.38;2.88;;;-3.60;99.90;;;-4.13;100.00;102263.94;5263409;28;20071;-44
2024/01/10 09:36:18;;;;;;;2.85;2.53;;;-3.60;99.90;;;-4.07;100.00;102247.56;5253183;28;20139;-45
2024/01/10 09:38:50;;;;;;;4.50;2.05;;;-3.50;99.90;;;-4.02;100.00;102251.56;5251331;28;20077;-44
2024/01/10 09:41:24;;;;;;;7.35;2.40;;;-3.50;99.90;;;-4.00;100.00;102265.38;5266232;28;20055;-45
2024/01/10 09:43:59;;;;;;;6.25;2.95;;;-3.40;99.90;;;-3.96;100.00;102263.38;5260157;28;20231;-44
2024/01/10 09:46:35;;;;;;;3.53;3.03;;;-3.40;99.90;;;-3.92;100.00;102267.16;5261707;28;20414;-44
2024/01/10 09:49:09;;;;;;;3.63;2.40;;;-3.40;99.90;;;-3.91;100.00;102266.47;5258518;28;20058;-44
2024/01/10 09:51:42;;;;;;;6.35;2.53;;;-3.40;99.90;;;-3.89;100.00;102264.97;5248925;28;20047;-44
2024/01/10 09:54:16;;;;;;;5.10;2.40;;;-3.30;99.90;;;-3.85;100.00;102270.63;5251182;28;20578;-44
2024/01/10 09:56:49;;;;;;;5.60;3.00;;;-3.30;99.90;;;-3.79;100.00;102275.47;5251680;28;20143;-44
2024/01/10 09:59:21;;;;;;;4.05;3.05;;;-3.20;99.90;;;-3.75;100.00;102272.56;5259941;28;20517;-44
2024/01/10 10:01:54;;;;;;;3.65;2.22;;;-3.20;99.90;;;-3.67;100.00;102269.25;5264705;28;20460;-43
2024/01/10 10:04:29;;;;;;;4.20;2.22;;;-3.10;99.90;;;-3.55;100.00;102274.84;5248169;28;20068;-44
2024/01/10 10:07:02;;;;;;;8.43;2.63;;;-3.00;99.90;;;-3.43;100.00;102270.25;5262277;28;20071;-44
2024/01/10 10:09:34;;;;;;;5.72;2.83;;;-3.00;99.90;;;-3.31;100.00;102279.28;5258341;28;20803;-44
2024/01/10 10:12:07;;;;;;;3.45;2.38;;;-2.80;99.90;;;-3.15;100.00;102280.25;5282943;28;20055;-44
2024/01/10 10:14:40;;;;;;;9.13;3.45;;;-2.70;99.90;;;-2.99;100.00;102276.91;5253582;28;20579;-44
2024/01/10 10:17:16;;;;;;;5.40;2.47;;;-2.60;99.90;;;-2.82;100.00;102272.00;5249409;28;20063;-44
2024/01/10 10:20:05;;;;;;;5.68;2.28;;;-2.40;99.90;;;-2.67;100.00;102267.69;5246374;28;20079;-44
2024/01/10 10:22:37;;;;;;;4.32;2.97;;;-2.20;99.90;;;-2.52;100.00;102270.31;5271809;28;20112;-44
2024/01/10 10:25:10;;;;;;;6.93;3.47;;;-2.10;99.90;;;-2.39;100.00;102256.31;5259910;28;20384;-45
2024/01/10 10:27:42;;;;;;;9.20;3.08;;;-2.00;99.90;;;-2.27;99.64;102262.78;5262158;28;20049;-45
2024/01/10 10:30:15;;;;;;;7.43;3.35;;;-1.90;99.90;;;-2.19;98.74;102261.97;5262738;28;20044;-44